createdAt,value
2019-04-07T00:00:04.961Z,10.2
2019-04-07T00:00:56.340Z,10.1
2019-04-07T00:01:45.036Z,10.1
2019-04-07T00:02:35.097Z,10.1
2019-04-07T00:03:24.980Z,10.1
2019-04-07T00:04:13.615Z,10.1
2019-04-07T00:05:16.082Z,10.1
2019-04-07T00:05:55.450Z,10.1
2019-04-07T00:06:44.373Z,10.1
2019-04-07T00:07:35.525Z,10.1
2019-04-07T00:08:24.472Z,10.1
2019-04-07T00:09:14.561Z,10
2019-04-07T00:10:04.632Z,10
2019-04-07T00:10:54.377Z,10
2019-04-07T00:11:45.715Z,10
2019-04-07T00:12:35.104Z,10
2019-04-07T00:13:24.286Z,10
2019-04-07T00:14:15.127Z,10
2019-04-07T00:15:06.957Z,10
2019-04-07T00:15:55.524Z,10
2019-04-07T00:16:45.778Z,9.9
2019-04-07T00:17:34.857Z,9.9
2019-04-07T00:18:25.607Z,9.9
2019-04-07T00:19:16.120Z,9.9
2019-04-07T00:20:06.618Z,9.9
2019-04-07T00:20:56.570Z,9.9
2019-04-07T00:21:46.067Z,9.9
2019-04-07T00:22:36.748Z,9.9
2019-04-07T00:23:25.554Z,9.9
2019-04-07T00:24:15.617Z,9.9
2019-04-07T00:25:06.280Z,9.9
2019-04-07T00:25:55.442Z,9.9
2019-04-07T00:26:45.739Z,9.8
2019-04-07T00:27:35.674Z,9.8
2019-04-07T00:28:25.361Z,9.8
2019-04-07T00:29:16.074Z,9.8
2019-04-07T00:30:06.564Z,9.8
2019-04-07T00:30:56.102Z,9.8
2019-04-07T00:31:46.279Z,9.8
2019-04-07T00:32:36.248Z,9.8
2019-04-07T00:33:28.285Z,9.8
2019-04-07T00:34:17.462Z,9.8
2019-04-07T00:35:07.141Z,9.8
2019-04-07T00:35:58.110Z,9.8
2019-04-07T00:36:47.344Z,9.8
2019-04-07T00:37:38.331Z,9.8
2019-04-07T00:38:26.637Z,9.8
2019-04-07T00:39:17.949Z,9.8
2019-04-07T00:40:09.594Z,9.8
2019-04-07T00:40:58.155Z,9.8
2019-04-07T00:41:48.526Z,9.7
2019-04-07T00:42:36.872Z,9.7
2019-04-07T00:43:29.632Z,9.7
2019-04-07T00:44:19.901Z,9.7
2019-04-07T00:45:07.516Z,9.7
2019-04-07T00:45:58.618Z,9.7
2019-04-07T00:46:48.667Z,9.7
2019-04-07T00:47:39.350Z,9.7
2019-04-07T00:48:28.627Z,9.7
2019-04-07T00:49:18.253Z,9.6
2019-04-07T00:50:09.706Z,9.6
2019-04-07T00:50:57.258Z,9.6
2019-04-07T00:51:49.694Z,9.6
2019-04-07T00:52:39.059Z,9.6
2019-04-07T00:53:27.855Z,9.6
2019-04-07T00:54:18.230Z,9.6
2019-04-07T00:55:09.952Z,9.6
2019-04-07T00:55:59.377Z,9.6
2019-04-07T00:56:47.707Z,9.6
2019-04-07T00:57:38.477Z,9.6
2019-04-07T00:58:30.150Z,9.6
2019-04-07T00:59:19.657Z,9.6
2019-04-07T01:00:08.551Z,9.6
2019-04-07T01:00:58.002Z,9.6
2019-04-07T01:01:48.422Z,9.6
2019-04-07T01:02:40.800Z,9.6
2019-04-07T01:03:30.192Z,9.5
2019-04-07T01:04:18.953Z,9.5
2019-04-07T01:05:08.517Z,9.6
2019-04-07T01:05:59.691Z,9.5
2019-04-07T01:06:49.925Z,9.5
2019-04-07T01:07:39.866Z,9.5
2019-04-07T01:08:30.900Z,9.5
2019-04-07T01:09:19.848Z,9.5
2019-04-07T01:10:09.680Z,9.5
2019-04-07T01:10:59.317Z,9.5
2019-04-07T01:11:50.734Z,9.5
2019-04-07T01:12:41.106Z,9.4
2019-04-07T01:13:29.819Z,9.4
2019-04-07T01:14:19.107Z,9.4
2019-04-07T01:15:10.109Z,9.4
2019-04-07T01:16:01.319Z,9.4
2019-04-07T01:16:49.714Z,9.4
2019-04-07T01:17:40.181Z,9.4
2019-04-07T01:18:29.572Z,9.4
2019-04-07T01:19:21.081Z,9.4
2019-04-07T01:20:11.536Z,9.4
2019-04-07T01:21:00.587Z,9.4
2019-04-07T01:21:51.120Z,9.4
2019-04-07T01:22:40.794Z,9.4
2019-04-07T01:23:29.819Z,9.4
2019-04-07T01:24:21.896Z,9.4
2019-04-07T01:25:11.268Z,9.4
2019-04-07T01:26:00.098Z,9.4
2019-04-07T01:26:50.893Z,9.4
2019-04-07T01:27:42.338Z,9.3
2019-04-07T01:28:30.719Z,9.4
2019-04-07T01:29:21.473Z,9.3
2019-04-07T01:30:12.257Z,9.3
2019-04-07T01:31:00.560Z,9.3
2019-04-07T01:31:51.745Z,9.3
2019-04-07T01:32:42.062Z,9.3
2019-04-07T01:33:31.336Z,9.3
2019-04-07T01:34:22.289Z,9.3
2019-04-07T01:35:13.276Z,9.3
2019-04-07T01:36:02.733Z,9.3
2019-04-07T01:36:51.738Z,9.3
2019-04-07T01:37:43.773Z,9.3
2019-04-07T01:38:33.274Z,9.3
2019-04-07T01:39:21.857Z,9.3
2019-04-07T01:40:12.318Z,9.3
2019-04-07T01:41:04.052Z,9.3
2019-04-07T01:41:52.572Z,9.3
2019-04-07T01:42:42.435Z,9.3
2019-04-07T01:43:32.694Z,9.2
2019-04-07T01:44:22.155Z,9.3
2019-04-07T01:45:14.712Z,9.2
2019-04-07T01:46:03.021Z,9.2
2019-04-07T01:46:52.467Z,9.2
2019-04-07T01:47:42.127Z,9.2
2019-04-07T01:48:32.422Z,9.2
2019-04-07T01:49:22.150Z,9.2
2019-04-07T01:50:14.303Z,9.2
2019-04-07T01:51:02.334Z,9.2
2019-04-07T01:51:52.924Z,9.2
2019-04-07T01:52:42.827Z,9.1
2019-04-07T01:53:32.269Z,9.1
2019-04-07T01:54:24.046Z,9.1
2019-04-07T01:55:13.387Z,9.1
2019-04-07T01:56:03.455Z,9.1
2019-04-07T01:56:53.785Z,9.1
2019-04-07T01:57:42.681Z,9.1
2019-04-07T01:58:34.822Z,9.1
2019-04-07T01:59:24.219Z,9.1
2019-04-07T02:00:12.894Z,9
2019-04-07T02:01:03.613Z,9
2019-04-07T02:01:54.347Z,9
2019-04-07T02:02:42.871Z,9
2019-04-07T02:03:35.658Z,8.9
2019-04-07T02:04:24.534Z,8.9
2019-04-07T02:05:13.269Z,8.9
2019-04-07T02:06:07.403Z,8.9
2019-04-07T02:06:53.852Z,8.9
2019-04-07T02:07:43.591Z,8.9
2019-04-07T02:08:33.217Z,8.9
2019-04-07T02:09:25.686Z,8.9
2019-04-07T02:10:14.229Z,8.9
2019-04-07T02:11:04.020Z,8.9
2019-04-07T02:11:54.130Z,8.9
2019-04-07T02:12:43.882Z,8.8
2019-04-07T02:13:36.197Z,8.8
2019-04-07T02:14:24.642Z,8.8
2019-04-07T02:15:14.852Z,8.8
2019-04-07T02:16:04.943Z,8.8
2019-04-07T02:16:54.326Z,8.8
2019-04-07T02:17:45.899Z,8.8
2019-04-07T02:18:35.369Z,8.8
2019-04-07T02:19:25.044Z,8.8
2019-04-07T02:20:14.037Z,8.8
2019-04-07T02:21:06.227Z,8.8
2019-04-07T02:21:54.593Z,8.8
2019-04-07T02:22:45.365Z,8.8
2019-04-07T02:23:34.445Z,8.8
2019-04-07T02:24:26.689Z,8.8
2019-04-07T02:25:16.106Z,8.8
2019-04-07T02:26:05.065Z,8.7
2019-04-07T02:26:55.318Z,8.8
2019-04-07T02:27:45.864Z,8.7
2019-04-07T02:28:35.771Z,8.7
2019-04-07T02:29:25.840Z,8.7
2019-04-07T02:30:17.582Z,8.7
2019-04-07T02:31:06.164Z,8.7
2019-04-07T02:31:56.295Z,8.7
2019-04-07T02:32:48.314Z,8.7
2019-04-07T02:33:37.190Z,8.6
2019-04-07T02:34:27.647Z,8.7
2019-04-07T02:35:17.525Z,8.6
2019-04-07T02:36:33.632Z,8.6
2019-04-07T02:36:56.516Z,8.6
2019-04-07T02:37:46.972Z,8.6
2019-04-07T02:38:37.363Z,8.6
2019-04-07T02:39:27.748Z,8.6
2019-04-07T02:40:16.099Z,8.6
2019-04-07T02:41:06.714Z,8.6
2019-04-07T02:41:57.568Z,8.6
2019-04-07T02:42:46.617Z,8.6
2019-04-07T02:43:35.439Z,8.6
2019-04-07T02:44:27.788Z,8.6
2019-04-07T02:45:17.557Z,8.6
2019-04-07T02:46:07.308Z,8.6
2019-04-07T02:46:57.322Z,8.6
2019-04-07T02:47:47.274Z,8.6
2019-04-07T02:48:36.712Z,8.5
2019-04-07T02:49:26.784Z,8.5
2019-04-07T02:50:18.204Z,8.5
2019-04-07T02:51:07.636Z,8.5
2019-04-07T02:51:56.961Z,8.5
2019-04-07T02:52:47.832Z,8.5
2019-04-07T02:53:39.152Z,8.5
2019-04-07T02:54:27.314Z,8.5
2019-04-07T02:55:16.106Z,8.5
2019-04-07T02:56:09.841Z,8.5
2019-04-07T02:56:57.331Z,8.4
2019-04-07T02:57:49.198Z,8.5
2019-04-07T02:58:38.134Z,8.5
2019-04-07T02:59:27.724Z,8.5
2019-04-07T03:00:18.626Z,8.4
2019-04-07T03:01:07.974Z,8.4
2019-04-07T03:01:58.071Z,8.4
2019-04-07T03:02:48.241Z,8.4
2019-04-07T03:03:40.904Z,8.4
2019-04-07T03:07:23.734Z,8.4
2019-04-07T03:07:58.015Z,8.4
2019-04-07T03:08:50.410Z,8.4
2019-04-07T03:09:38.326Z,8.4
2019-04-07T03:10:29.005Z,8.4
2019-04-07T03:11:20.009Z,8.4
2019-04-07T03:12:08.568Z,8.4
2019-04-07T03:13:00.981Z,8.4
2019-04-07T03:13:49.419Z,8.4
2019-04-07T03:14:39.708Z,8.4
2019-04-07T03:15:28.533Z,8.4
2019-04-07T03:16:20.028Z,8.4
2019-04-07T03:17:09.496Z,8.4
2019-04-07T03:18:00.511Z,8.4
2019-04-07T03:18:48.744Z,8.4
2019-04-07T03:19:39.809Z,8.4
2019-04-07T03:20:31.103Z,8.4
2019-04-07T03:21:20.238Z,8.4
2019-04-07T03:22:11.097Z,8.4
2019-04-07T03:23:00.730Z,8.4
2019-04-07T03:23:51.860Z,8.4
2019-04-07T03:24:40.417Z,8.4
2019-04-07T03:25:30.418Z,8.3
2019-04-07T03:26:21.164Z,8.3
2019-04-07T03:27:11.060Z,8.3
2019-04-07T03:28:01.636Z,8.3
2019-04-07T03:28:51.397Z,8.3
2019-04-07T03:29:42.215Z,8.3
2019-04-07T03:30:45.185Z,8.2
2019-04-07T03:31:38.560Z,8.2
2019-04-07T03:32:57.728Z,8.2
2019-04-07T03:34:18.162Z,8.2
2019-04-07T03:35:18.624Z,8.1
2019-04-07T03:37:48.294Z,8.1
2019-04-07T03:38:08.327Z,8.1
2019-04-07T03:38:59.050Z,8.1
2019-04-07T03:40:37.604Z,8.1
2019-04-07T03:41:41.454Z,8.1
2019-04-07T03:42:17.871Z,8.1
2019-04-07T03:43:07.632Z,8.1
2019-04-07T03:43:59.689Z,8.1
2019-04-07T03:44:48.926Z,8.1
2019-04-07T03:45:38.190Z,8.1
2019-04-07T03:46:28.938Z,8
2019-04-07T03:47:18.842Z,8
2019-04-07T03:48:10.266Z,8
2019-04-07T03:48:58.405Z,7.9
2019-04-07T03:49:47.918Z,8
2019-04-07T03:50:39.228Z,7.9
2019-04-07T03:51:28.032Z,7.9
2019-04-07T03:52:19.352Z,7.9
2019-04-07T03:53:08.197Z,7.9
2019-04-07T03:53:57.748Z,7.9
2019-04-07T03:54:48.108Z,7.9
2019-04-07T03:55:38.991Z,7.9
2019-04-07T03:56:29.402Z,7.9
2019-04-07T03:57:18.187Z,7.9
2019-04-07T03:58:09.920Z,7.8
2019-04-07T03:58:58.786Z,7.8
2019-04-07T03:59:48.943Z,7.8
2019-04-07T04:00:38.935Z,7.8
2019-04-07T04:01:30.625Z,7.8
2019-04-07T04:02:20.138Z,7.8
2019-04-07T04:03:09.295Z,7.8
2019-04-07T04:03:59.398Z,7.8
2019-04-07T04:04:50.033Z,7.8
2019-04-07T04:05:39.263Z,7.8
2019-04-07T04:06:30.705Z,7.8
2019-04-07T04:07:38.693Z,7.8
2019-04-07T04:08:09.361Z,7.8
2019-04-07T04:08:59.473Z,7.8
2019-04-07T04:09:49.146Z,7.8
2019-04-07T04:10:40.768Z,7.8
2019-04-07T04:11:29.714Z,7.7
2019-04-07T04:12:18.775Z,7.7
2019-04-07T04:13:11.024Z,7.7
2019-04-07T04:13:59.794Z,7.7
2019-04-07T04:14:49.259Z,7.7
2019-04-07T04:15:41.212Z,7.7
2019-04-07T04:16:30.047Z,7.7
2019-04-07T04:17:20.407Z,7.6
2019-04-07T04:18:10.112Z,7.6
2019-04-07T04:19:02.428Z,7.6
2019-04-07T04:19:51.822Z,7.6
2019-04-07T04:20:41.442Z,7.6
2019-04-07T04:21:32.675Z,7.6
2019-04-07T04:22:21.974Z,7.6
2019-04-07T04:23:14.877Z,7.6
2019-04-07T04:24:02.028Z,7.6
2019-04-07T04:24:51.549Z,7.6
2019-04-07T04:25:42.727Z,7.6
2019-04-07T04:26:30.716Z,7.6
2019-04-07T04:27:22.107Z,7.6
2019-04-07T04:28:10.680Z,7.6
2019-04-07T04:29:04.501Z,7.6
2019-04-07T04:29:57.293Z,7.6
2019-04-07T04:30:42.643Z,7.6
2019-04-07T04:31:30.962Z,7.6
2019-04-07T04:32:23.078Z,7.6
2019-04-07T04:33:11.004Z,7.6
2019-04-07T04:34:01.940Z,7.6
2019-04-07T04:34:51.299Z,7.6
2019-04-07T04:35:42.715Z,7.6
2019-04-07T04:36:31.954Z,7.6
2019-04-07T04:37:53.949Z,7.6
2019-04-07T04:38:13.221Z,7.6
2019-04-07T04:39:02.746Z,7.6
2019-04-07T04:39:54.135Z,7.7
2019-04-07T04:40:44.615Z,7.7
2019-04-07T04:41:34.704Z,7.7
2019-04-07T04:42:23.306Z,7.7
2019-04-07T04:43:15.321Z,7.7
2019-04-07T04:44:04.401Z,7.7
2019-04-07T04:44:54.831Z,7.7
2019-04-07T04:45:42.941Z,7.8
2019-04-07T04:46:34.909Z,7.8
2019-04-07T04:47:25.099Z,7.8
2019-04-07T04:48:13.480Z,7.8
2019-04-07T04:49:04.769Z,7.8
2019-04-07T04:49:54.751Z,7.8
2019-04-07T04:50:44.344Z,7.8
2019-04-07T04:51:42.522Z,7.9
2019-04-07T04:52:24.051Z,7.9
2019-04-07T04:53:13.789Z,7.9
2019-04-07T04:54:05.122Z,7.9
2019-04-07T04:54:55.173Z,7.9
2019-04-07T04:55:45.734Z,7.9
2019-04-07T04:56:34.257Z,7.9
2019-04-07T04:57:25.645Z,8
2019-04-07T06:05:08.282Z,13.2
2019-04-07T06:06:00.996Z,13.3
2019-04-07T06:06:56.913Z,13.4
2019-04-07T06:07:39.411Z,13.6
2019-04-07T06:08:42.740Z,13.6
2019-04-07T06:09:23.008Z,13.8
2019-04-07T06:10:10.509Z,13.8
2019-04-07T06:11:05.000Z,13.9
2019-04-07T06:11:50.798Z,14
2019-04-07T06:12:49.196Z,14.1
2019-04-07T06:13:31.211Z,14.1
2019-04-07T06:14:19.543Z,14.1
2019-04-07T06:15:09.603Z,14.2
2019-04-07T06:15:59.937Z,14.3
2019-04-07T06:16:55.942Z,14.4
2019-04-07T06:17:41.617Z,14.4
2019-04-07T06:18:35.671Z,14.5
2019-04-07T06:19:20.318Z,14.6
2019-04-07T06:20:18.920Z,14.6
2019-04-07T06:20:59.996Z,14.8
2019-04-07T06:21:51.426Z,14.8
2019-04-07T06:22:41.355Z,14.9
2019-04-07T06:23:31.944Z,15
2019-04-07T06:24:23.334Z,15.1
2019-04-07T06:25:11.638Z,15.2
2019-04-07T06:26:01.305Z,15.3
2019-04-07T06:26:51.534Z,15.3
2019-04-07T06:27:44.773Z,15.3
2019-04-07T06:28:29.964Z,15.4
2019-04-07T06:29:26.405Z,15.4
2019-04-07T06:30:11.803Z,15.5
2019-04-07T06:31:03.728Z,15.5
2019-04-07T06:31:50.502Z,15.6
2019-04-07T06:32:44.722Z,15.6
2019-04-07T06:33:32.027Z,15.7
2019-04-07T06:34:20.047Z,15.8
2019-04-07T06:35:14.713Z,15.8
2019-04-07T06:36:01.451Z,15.8
2019-04-07T06:36:58.165Z,15.8
2019-04-07T06:37:41.802Z,15.9
2019-04-07T06:38:50.957Z,15.9
2019-04-07T06:39:22.189Z,15.9
2019-04-07T06:40:12.314Z,15.9
2019-04-07T06:41:03.958Z,16
2019-04-07T06:41:50.141Z,16
2019-04-07T06:42:45.730Z,16.1
2019-04-07T06:43:31.264Z,16.1
2019-04-07T06:44:25.484Z,16.1
2019-04-07T06:45:12.939Z,16.2
2019-04-07T06:46:00.423Z,16.3
2019-04-07T06:46:50.767Z,16.3
2019-04-07T06:47:41.260Z,16.3
2019-04-07T06:48:33.016Z,16.4
2019-04-07T06:49:22.127Z,16.4
2019-04-07T06:50:15.720Z,16.5
2019-04-07T06:51:03.867Z,16.5
2019-04-07T06:51:53.245Z,16.6
2019-04-07T06:52:43.327Z,16.6
2019-04-07T06:53:31.645Z,16.6
2019-04-07T06:54:25.423Z,16.7
2019-04-07T06:55:11.403Z,16.8
2019-04-07T06:56:06.515Z,16.8
2019-04-07T06:56:53.780Z,16.8
2019-04-07T06:57:42.797Z,16.9
2019-04-07T06:58:33.080Z,16.9
2019-04-07T06:59:22.940Z,16.9
2019-04-07T07:00:11.730Z,16.9
2019-04-07T07:02:45.248Z,17.1
2019-04-07T07:05:23.530Z,17.2
2019-04-07T07:06:02.010Z,17.3
2019-04-07T07:07:07.301Z,17.3
2019-04-07T07:07:50.914Z,17.4
2019-04-07T07:08:57.129Z,17.4
2019-04-07T07:09:30.652Z,17.5
2019-04-07T07:10:35.509Z,17.6
2019-04-07T07:11:10.543Z,17.6
2019-04-07T07:11:57.238Z,17.8
2019-04-07T07:12:48.093Z,17.8
2019-04-07T07:13:52.061Z,17.9
2019-04-07T07:14:48.494Z,17.9
2019-04-07T07:15:38.494Z,18
2019-04-07T07:16:20.659Z,18.1
2019-04-07T07:17:09.756Z,18.2
2019-04-07T07:18:05.210Z,18.3
2019-04-07T07:18:55.705Z,18.4
2019-04-07T07:19:42.278Z,18.4
2019-04-07T07:20:33.303Z,18.5
2019-04-07T07:21:23.434Z,18.6
2019-04-07T07:22:19.303Z,18.6
2019-04-07T07:23:53.025Z,18.8
2019-04-07T07:25:00.203Z,18.8
2019-04-07T07:25:36.334Z,19
2019-04-07T07:26:23.397Z,19
2019-04-07T07:27:13.058Z,19.1
2019-04-07T07:28:01.539Z,19.2
2019-04-07T07:28:49.712Z,19.3
2019-04-07T07:29:45.314Z,19.4
2019-04-07T07:30:31.528Z,19.5
2019-04-07T07:31:27.155Z,19.6
2019-04-07T07:32:12.627Z,19.8
2019-04-07T07:33:02.874Z,19.8
2019-04-07T07:33:51.735Z,19.9
2019-04-07T07:34:44.126Z,20.1
2019-04-07T07:35:32.246Z,20.2
2019-04-07T07:36:24.975Z,20.3
2019-04-07T07:37:12.564Z,20.4
2019-04-07T07:38:02.681Z,20.6
2019-04-07T10:06:15.342Z,50.4
2019-04-07T10:06:57.109Z,50.3
2019-04-07T10:07:49.989Z,50.1
2019-04-07T10:08:38.373Z,49.9
2019-04-07T10:09:28.977Z,49.8
2019-04-07T10:10:19.163Z,49.7
2019-04-07T10:11:08.484Z,49.6
2019-04-07T10:11:58.405Z,49.4
2019-04-07T10:12:48.538Z,49.3
2019-04-07T10:13:38.683Z,49.2
2019-04-07T10:14:28.471Z,49
2019-04-07T10:15:19.865Z,48.9
2019-04-07T10:16:13.255Z,48.8
2019-04-07T10:16:59.507Z,48.9
2019-04-07T10:17:48.564Z,48.9
2019-04-07T10:18:38.751Z,48.9
2019-04-07T10:19:29.940Z,48.9
2019-04-07T10:20:24.289Z,48.8
2019-04-07T10:21:09.880Z,48.8
2019-04-07T10:22:03.961Z,48.9
2019-04-07T10:22:50.493Z,48.9
2019-04-07T10:23:40.845Z,49
2019-04-07T10:24:30.254Z,49.1
2019-04-07T10:25:18.518Z,49.2
2019-04-07T10:26:10.458Z,49.4
2019-04-07T10:27:01.345Z,49.6
2019-04-07T10:27:50.790Z,50
2019-04-07T10:28:45.389Z,50.6
2019-04-07T10:29:29.478Z,51.4
2019-04-07T10:31:10.208Z,52.6
2019-04-07T10:31:59.467Z,53.1
2019-04-07T10:32:51.095Z,53.7
2019-04-07T10:33:39.595Z,54.3
2019-04-07T10:34:29.924Z,54.9
2019-04-07T10:35:20.480Z,55.4
2019-04-07T10:36:11.527Z,56
2019-04-07T10:37:06.693Z,56.5
2019-04-07T10:37:55.626Z,57.1
2019-04-07T10:38:41.377Z,57.6
2019-04-07T10:40:26.451Z,60.8
2019-04-07T10:41:11.846Z,61.8
2019-04-07T10:42:03.131Z,61.1
2019-04-07T10:42:57.233Z,59.1
2019-04-07T10:43:42.501Z,55
2019-04-07T10:44:34.040Z,52
2019-04-07T10:45:21.778Z,50
2019-04-07T10:46:12.385Z,49
2019-04-07T10:47:02.059Z,48.6
2019-04-07T10:47:53.322Z,48.6
2019-04-07T10:48:41.199Z,48.8
2019-04-07T10:49:31.259Z,49.6
2019-04-07T10:50:23.191Z,51.8
2019-04-07T10:51:13.160Z,52.8
2019-04-07T10:52:02.783Z,54.1
2019-04-07T10:52:53.271Z,55.6
2019-04-07T10:53:42.647Z,57
2019-04-07T10:55:24.058Z,61.3
2019-04-07T10:56:12.766Z,63.3
2019-04-07T10:57:03.317Z,63.4
2019-04-07T10:57:55.284Z,63.1
2019-04-07T10:58:44.131Z,61.8
2019-04-07T10:59:34.154Z,59.9
2019-04-07T11:00:24.583Z,58.3
2019-04-07T11:01:12.574Z,57.7
2019-04-07T11:02:03.456Z,58.2
2019-04-07T11:02:58.626Z,59.1
2019-04-07T11:03:41.928Z,59.8
2019-04-07T11:04:33.986Z,59.9
2019-04-07T11:05:24.926Z,59.5
2019-04-07T11:06:14.944Z,58.6
2019-04-07T11:07:04.165Z,57.6
2019-04-07T11:07:52.178Z,56.9
2019-04-07T11:08:43.778Z,56.6
2019-04-07T11:09:32.938Z,56.6
2019-04-07T11:10:40.627Z,56.6
2019-04-07T11:11:15.100Z,56.4
2019-04-07T11:12:05.087Z,56.2
2019-04-07T11:12:56.054Z,55.6
2019-04-07T11:13:43.942Z,54.8
2019-04-07T11:14:35.046Z,54.1
2019-04-07T11:15:23.872Z,52.9
2019-04-07T11:16:14.755Z,52
2019-04-07T11:17:07.974Z,51.4
2019-04-07T11:17:53.778Z,51
2019-04-07T11:18:45.069Z,50.9
2019-04-07T11:19:37.693Z,50.9
2019-04-07T11:20:22.984Z,50.9
2019-04-07T11:21:14.067Z,51.1
2019-04-07T11:22:03.224Z,51.2
2019-04-07T11:22:55.210Z,51.4
2019-04-07T11:23:45.682Z,51.6
2019-04-07T11:24:35.125Z,51.7
2019-04-07T11:25:24.366Z,51.8
2019-04-07T11:26:14.947Z,51.7
2019-04-07T11:27:05.242Z,51.6
2019-04-07T11:27:55.727Z,51.4
2019-04-07T11:28:45.379Z,51.3
2019-04-07T11:29:40.214Z,51
2019-04-07T11:30:25.527Z,50.8
2019-04-07T11:31:14.536Z,50.6
2019-04-07T11:32:03.619Z,50.4
2019-04-07T11:32:55.764Z,50.1
2019-04-07T11:33:45.504Z,49.8
2019-04-07T11:34:34.549Z,49.6
2019-04-07T11:35:32.499Z,49.4
2019-04-07T11:36:23.416Z,49.3
2019-04-07T11:37:06.017Z,49.3
2019-04-07T11:37:55.471Z,49.3
2019-04-07T11:38:46.249Z,49.2
2019-04-07T11:39:36.157Z,49.1
2019-04-07T11:40:25.504Z,48.9
2019-04-07T11:41:15.624Z,48.6
2019-04-07T11:42:08.549Z,48.3
2019-04-07T11:42:56.191Z,48
2019-04-07T11:43:45.928Z,47.7
2019-04-07T11:44:36.039Z,47.3
2019-04-07T11:45:26.950Z,47
2019-04-07T11:46:17.482Z,46.6
2019-04-07T11:47:06.144Z,46.2
2019-04-07T11:47:56.939Z,45.8
2019-04-07T11:48:46.993Z,45.4
2019-04-07T11:49:37.690Z,45
2019-04-07T11:50:26.497Z,44.5
2019-04-07T11:51:16.639Z,44.2
2019-04-07T11:52:06.002Z,43.8
2019-04-07T11:52:57.833Z,43.4
2019-04-07T11:53:47.739Z,43.1
2019-04-07T11:54:39.117Z,42.8
2019-04-07T11:55:31.868Z,42.4
2019-04-07T11:56:17.361Z,42.1
2019-04-07T11:57:07.028Z,41.7
2019-04-07T11:58:34.360Z,41.3
2019-04-07T11:58:55.433Z,40.4
2019-04-07T11:59:45.873Z,40.3
2019-04-07T12:00:41.516Z,39.9
2019-04-07T12:01:26.091Z,39.5
2019-04-07T12:02:22.778Z,39.1
2019-04-07T12:03:07.154Z,38.8
2019-04-07T12:03:59.188Z,38.5
2019-04-07T12:06:11.577Z,37.8
2019-04-07T12:06:59.048Z,37.4
2019-04-07T12:07:57.113Z,37
2019-04-07T12:08:40.981Z,36.8
2019-04-07T12:09:29.237Z,36.5
2019-04-07T12:10:18.867Z,36.3
2019-04-07T12:11:08.302Z,36
2019-04-07T12:12:00.000Z,35.7
2019-04-07T12:12:50.387Z,35.5
2019-04-07T12:13:45.540Z,35.3
2019-04-07T12:14:30.713Z,35
2019-04-07T12:15:30.702Z,34.8
2019-04-07T12:16:10.837Z,34.5
2019-04-07T12:17:12.410Z,34.3
2019-04-07T12:17:49.163Z,34.1
2019-04-07T12:18:40.717Z,33.9
2019-04-07T12:19:32.149Z,33.8
2019-04-07T12:20:19.523Z,33.7
2019-04-07T12:21:24.291Z,33.6
2019-04-07T12:21:59.886Z,33.4
2019-04-07T12:22:51.672Z,33.3
2019-04-07T12:23:41.873Z,33.2
2019-04-07T12:24:46.012Z,33
2019-04-07T12:25:21.095Z,32.8
2019-04-07T12:26:10.102Z,32.8
2019-04-07T12:27:04.621Z,32.6
2019-04-07T12:27:49.529Z,32.4
2019-04-07T12:28:41.124Z,32.4
2019-04-07T12:29:30.661Z,32.3
2019-04-07T12:30:25.149Z,32.3
2019-04-07T12:31:12.436Z,32.2
2019-04-07T12:32:00.704Z,32.1
2019-04-07T12:32:49.741Z,32.1
2019-04-07T12:33:43.215Z,31.9
2019-04-07T12:34:31.147Z,31.8
2019-04-07T12:35:23.599Z,31.7
2019-04-07T12:36:14.766Z,31.6
2019-04-07T12:37:10.289Z,31.6
2019-04-07T12:37:50.729Z,31.6
2019-04-07T12:38:47.797Z,31.5
2019-04-07T12:39:36.622Z,31.5
2019-04-07T12:40:26.401Z,31.4
2019-04-07T12:41:25.013Z,31.4
2019-04-07T12:42:09.508Z,31.4
2019-04-07T12:42:52.338Z,31.3
2019-04-07T12:43:50.565Z,31.2
2019-04-07T12:44:31.545Z,31.1
2019-04-07T12:45:21.070Z,31
2019-04-07T12:46:12.153Z,30.9
2019-04-07T12:47:01.755Z,30.9
2019-04-07T12:47:52.815Z,30.8
2019-04-07T12:48:44.062Z,30.8
2019-04-07T12:49:42.064Z,30.8
2019-04-07T12:50:23.130Z,30.7
2019-04-07T12:51:13.641Z,30.6
2019-04-07T12:52:01.940Z,30.5
2019-04-07T12:52:52.956Z,30.4
2019-04-07T12:53:44.358Z,30.4
2019-04-07T12:54:33.059Z,30.3
2019-04-07T12:55:22.891Z,30.3
2019-04-07T12:56:13.279Z,30.3
2019-04-07T12:57:10.559Z,30.3
2019-04-07T12:57:53.020Z,30.2
2019-04-07T12:58:50.513Z,30.1
2019-04-07T12:59:32.554Z,30.1
2019-04-07T13:00:27.484Z,30.1
2019-04-07T13:01:33.855Z,29.9
2019-04-07T13:02:24.019Z,29.9
2019-04-07T13:03:13.903Z,29.8
2019-04-07T13:04:02.209Z,29.8
2019-04-07T13:04:53.786Z,29.7
2019-04-07T13:05:43.219Z,29.7
2019-04-07T13:06:33.287Z,29.6
2019-04-07T13:07:24.168Z,29.6
2019-04-07T13:08:13.484Z,29.6
2019-04-07T13:09:02.140Z,29.6
2019-04-07T13:09:54.761Z,29.6
2019-04-07T13:10:43.506Z,29.5
2019-04-07T13:11:50.432Z,29.4
2019-04-07T13:12:28.961Z,29.3
2019-04-07T13:13:13.988Z,29.3
2019-04-07T13:14:10.646Z,29.3
2019-04-07T13:14:52.233Z,29.2
2019-04-07T13:15:52.101Z,29.2
2019-04-07T13:16:32.694Z,29.2
2019-04-07T13:17:23.631Z,29.2
2019-04-07T13:18:14.567Z,29.1
2019-04-07T13:19:15.665Z,29.1
2019-04-07T13:19:53.355Z,29.1
2019-04-07T13:20:49.043Z,29.1
2019-04-07T13:21:34.038Z,29.1
2019-04-07T13:22:23.316Z,29.1
2019-04-07T13:23:15.265Z,29.1
2019-04-07T13:24:30.855Z,29.1
2019-04-07T13:25:10.634Z,29.1
2019-04-07T13:26:03.394Z,29.1
2019-04-07T13:26:52.006Z,29.1
2019-04-07T13:27:42.726Z,29.1
2019-04-07T13:28:31.587Z,29.2
2019-04-07T13:29:21.006Z,29.3
2019-04-07T13:30:10.233Z,29.4
2019-04-07T13:31:00.286Z,29.4
2019-04-07T13:31:51.325Z,29.5
2019-04-07T13:32:59.285Z,29.6
2019-04-07T13:33:31.717Z,29.7
2019-04-07T13:34:22.162Z,29.8
2019-04-07T13:35:10.306Z,29.8
2019-04-07T13:36:02.343Z,29.9
2019-04-07T13:36:55.047Z,29.9
2019-04-07T13:37:44.887Z,29.9
2019-04-07T13:38:30.568Z,30
2019-04-07T13:39:21.855Z,30
2019-04-07T13:40:16.272Z,30.1
2019-04-07T13:41:01.779Z,30.1
2019-04-07T13:41:59.023Z,30.1
2019-04-07T13:42:45.702Z,30
2019-04-07T13:43:38.087Z,29.9
2019-04-07T13:44:22.787Z,29.9
2019-04-07T13:45:18.087Z,29.8
2019-04-07T13:46:03.709Z,29.7
2019-04-07T13:46:51.440Z,29.6
2019-04-07T13:47:46.973Z,29.6
2019-04-07T13:48:33.366Z,29.5
2019-04-07T13:49:31.803Z,29.5
2019-04-07T13:50:13.756Z,29.4
2019-04-07T13:51:03.191Z,29.4
2019-04-07T13:51:53.076Z,29.3
2019-04-07T13:52:44.251Z,29.3
2019-04-07T13:53:48.201Z,29.3
2019-04-07T13:54:24.268Z,29.2
2019-04-07T13:55:14.091Z,29.1
2019-04-07T13:56:02.759Z,29.1
2019-04-07T13:56:54.798Z,29.1
2019-04-07T13:57:42.846Z,29
2019-04-07T13:58:37.759Z,28.9
2019-04-07T13:59:24.738Z,28.9
2019-04-07T14:00:18.462Z,28.9
2019-04-07T14:01:03.641Z,28.8
2019-04-07T14:02:08.494Z,28.8
2019-04-07T14:02:44.305Z,28.8
2019-04-07T14:03:35.550Z,28.7
2019-04-07T14:04:39.193Z,28.6
2019-04-07T14:07:10.003Z,28.5
2019-04-07T14:08:00.077Z,28.4
2019-04-07T14:08:48.013Z,28.3
2019-04-07T14:09:39.610Z,28.3
2019-04-07T14:10:30.945Z,28.3
2019-04-07T14:11:19.841Z,28.1
2019-04-07T14:12:15.740Z,28.2
2019-04-07T14:13:01.534Z,28.1
2019-04-07T14:13:48.457Z,28.1
2019-04-07T14:14:40.994Z,28
2019-04-07T16:07:10.249Z,19.6
2019-04-07T16:07:58.816Z,19.4
2019-04-07T16:08:51.696Z,19.4
2019-04-07T16:10:08.245Z,19.3
2019-04-07T16:10:57.740Z,19.3
2019-04-07T16:11:52.072Z,19.2
2019-04-07T16:12:59.791Z,19.1
2019-04-07T16:13:30.257Z,19.1
2019-04-07T16:14:18.667Z,19
2019-04-07T16:15:08.085Z,18.9
2019-04-07T16:15:58.006Z,18.9
2019-04-07T16:16:51.212Z,18.8
2019-04-07T16:17:40.135Z,18.8
2019-04-07T16:20:45.134Z,18.6
2019-04-07T16:21:34.599Z,18.5
2019-04-07T16:22:24.547Z,18.4
2019-04-07T16:23:20.837Z,18.4
2019-04-07T16:24:03.920Z,18.4
2019-04-07T16:24:58.270Z,18.3
2019-04-07T16:25:44.266Z,18.3
2019-04-07T16:26:38.580Z,18.2
2019-04-07T16:27:24.910Z,18.1
2019-04-07T16:28:18.557Z,18.1
2019-04-07T16:29:05.030Z,18.1
2019-04-07T16:29:54.701Z,18
2019-04-07T16:30:47.763Z,17.9
2019-04-07T16:31:35.416Z,17.9
2019-04-07T16:32:26.656Z,17.9
2019-04-07T16:33:15.217Z,17.8
2019-04-07T16:34:11.429Z,17.8
2019-04-07T16:34:54.605Z,17.7
2019-04-07T16:35:57.931Z,17.6
2019-04-07T16:36:36.574Z,17.6
2019-04-07T16:37:27.258Z,17.6
2019-04-07T16:38:17.450Z,17.5
2019-04-07T16:39:09.136Z,17.4
2019-04-07T16:39:54.492Z,17.4
2019-04-07T16:40:46.719Z,17.4
2019-04-07T16:41:35.220Z,17.3
2019-04-07T16:42:25.205Z,17.3
2019-04-07T16:43:22.035Z,17.2
2019-04-07T16:44:12.513Z,17.2
2019-04-07T16:44:56.350Z,17.1
2019-04-07T16:45:49.540Z,17.1
2019-04-07T16:48:16.684Z,16.9
2019-04-07T16:49:13.438Z,16.9
2019-04-07T16:49:55.894Z,16.9
2019-04-07T16:50:55.207Z,16.8
2019-04-07T16:51:38.316Z,16.8
2019-04-07T16:52:32.692Z,16.7
2019-04-07T16:53:16.331Z,16.7
2019-04-07T16:54:13.145Z,16.6
2019-04-07T16:54:57.016Z,16.6
2019-04-07T16:55:57.475Z,16.5
2019-04-07T16:56:36.455Z,16.5
2019-04-07T16:57:34.768Z,16.4
2019-04-07T16:58:18.316Z,16.4
2019-04-07T16:59:12.340Z,16.4
2019-04-07T16:59:57.294Z,16.3
2019-04-07T17:00:47.953Z,16.3
2019-04-07T17:01:37.849Z,16.3
2019-04-07T17:02:26.686Z,16.2
2019-04-07T17:03:16.138Z,16.2
2019-04-07T17:04:06.889Z,16.1
2019-04-07T17:04:57.838Z,16.1
2019-04-07T17:05:47.856Z,16